Time;durP1;ratioP1;P1;durP2;ratioP2;P2;SDS_P1;SDS_P2;PMS_P1;PMS_P2;Temp;Humidity;BMP_temperature;BMP_pressure;BME280_temperature;BME280_humidity;BME280_pressure;Samples;Min_cycle;Max_cycle;Signal;HPM_P1;HPM_P2
2023/07/19 00:01:59;;;;;;;2.70;1.60;;;;;;;12.83;75.14;100310.11;104061;278;113359;-54
2023/07/19 00:04:34;;;;;;;4.10;2.30;;;;;;;12.82;75.20;100310.36;104085;279;95509;-54
2023/07/19 00:07:11;;;;;;;4.20;1.90;;;;;;;12.79;75.33;100306.19;103947;280;98313;-54
2023/07/19 00:09:45;;;;;;;3.00;1.90;;;;;;;12.78;75.35;100305.89;104121;278;120165;-54
2023/07/19 00:12:19;;;;;;;3.60;2.60;;;;;;;12.80;75.25;100302.60;104076;278;106172;-53
2023/07/19 00:14:53;;;;;;;4.00;1.80;;;;;;;12.75;75.60;100304.77;104072;278;115669;-57
2023/07/19 00:17:27;;;;;;;5.60;1.90;;;;;;;12.68;75.79;100299.40;104093;278;95470;-57
2023/07/19 00:20:01;;;;;;;3.50;1.90;;;;;;;12.65;75.95;100298.11;104536;278;98033;-53
2023/07/19 00:22:35;;;;;;;3.90;1.90;;;;;;;12.61;75.95;100294.98;104103;278;121266;-53
2023/07/19 00:25:11;;;;;;;2.60;1.70;;;;;;;12.62;75.92;100290.69;104072;278;106016;-57
2023/07/19 00:27:46;;;;;;;4.50;1.90;;;;;;;12.60;76.20;100291.17;104562;278;114945;-56
2023/07/19 00:30:20;;;;;;;5.40;2.20;;;;;;;12.64;76.05;100289.52;104081;282;96855;-53
2023/07/19 00:32:54;;;;;;;2.80;1.90;;;;;;;12.63;76.09;100286.59;104130;278;95605;-53
2023/07/19 00:35:28;;;;;;;4.20;2.90;;;;;;;12.59;76.20;100283.66;104563;278;119718;-54
2023/07/19 00:38:01;;;;;;;;;;;;;;;12.57;76.27;100281.61;104575;278;104987;-54
2023/07/19 00:40:37;;;;;;;3.30;2.20;;;;;;;12.53;76.51;100277.02;104565;278;114987;-53
2023/07/19 00:43:13;;;;;;;3.10;2.20;;;;;;;12.53;76.64;100279.08;104076;278;93100;-52
2023/07/19 00:45:53;;;;;;;2.50;1.80;;;;;;;12.48;76.85;100281.23;104546;278;95726;-56
2023/07/19 00:48:27;;;;;;;2.80;2.00;;;;;;;12.42;76.93;100284.33;104115;278;121072;-56
2023/07/19 00:51:01;;;;;;;4.50;2.20;;;;;;;12.39;76.96;100288.28;104526;278;105245;-53
2023/07/19 00:53:36;;;;;;;4.00;2.00;;;;;;;12.33;77.23;100290.46;104063;278;114285;-53
2023/07/19 00:56:11;;;;;;;4.00;2.20;;;;;;;12.31;77.15;100287.17;104064;278;96218;-53
2023/07/19 00:58:46;;;;;;;3.40;1.90;;;;;;;12.28;77.19;100289.58;104490;279;98310;-52
2023/07/19 01:01:21;;;;;;;3.50;1.60;;;;;;;12.27;77.44;100285.81;104099;278;119547;-56
2023/07/19 01:03:56;;;;;;;3.60;2.00;;;;;;;12.24;77.58;100279.52;104532;278;105807;-56
2023/07/19 01:06:29;;;;;;;2.70;1.80;;;;;;;12.26;77.69;100280.86;104103;278;113293;-56
2023/07/19 01:09:04;;;;;;;5.70;2.10;;;;;;;12.28;77.69;100275.03;104097;282;95189;-56
2023/07/19 01:11:38;;;;;;;3.50;1.90;;;;;;;12.28;77.87;100272.70;104130;278;96163;-55
2023/07/19 01:14:12;;;;;;;3.70;1.80;;;;;;;12.26;77.95;100268.08;104090;278;121489;-55
2023/07/19 01:16:46;;;;;;;3.00;1.80;;;;;;;12.19;77.97;100267.67;104116;278;104996;-56
2023/07/19 01:19:20;;;;;;;3.90;2.00;;;;;;;12.15;77.88;100264.95;104601;278;114293;-56
2023/07/19 01:21:56;;;;;;;6.50;1.90;;;;;;;12.08;78.42;100260.74;104098;278;96066;-53
2023/07/19 01:24:30;;;;;;;5.40;2.10;;;;;;;12.05;78.41;100257.83;104543;278;95336;-53
2023/07/19 01:27:04;;;;;;;3.10;1.90;;;;;;;12.04;78.61;100255.45;104125;278;117680;-52
2023/07/19 01:29:39;;;;;;;3.00;1.70;;;;;;;12.04;78.29;100255.36;104562;278;103356;-54
2023/07/19 01:32:14;;;;;;;3.10;2.00;;;;;;;12.01;78.46;100251.69;104102;278;114956;-56
2023/07/19 01:34:47;;;;;;;2.80;1.80;;;;;;;11.98;78.49;100255.50;104106;278;95716;-53
2023/07/19 01:37:22;;;;;;;5.20;1.90;;;;;;;11.95;78.75;100256.49;104545;278;97483;-53
2023/07/19 01:39:56;;;;;;;3.60;2.00;;;;;;;11.92;78.90;100258.82;104532;278;121129;-53
2023/07/19 01:42:29;;;;;;;5.40;1.90;;;;;;;11.88;79.13;100260.66;104108;278;105345;-54
2023/07/19 01:45:03;;;;;;;5.80;1.90;;;;;;;11.82;79.34;100259.93;103922;279;114240;-53
2023/07/19 01:47:37;;;;;;;4.60;2.00;;;;;;;11.82;79.39;100260.06;104069;278;97014;-53
2023/07/19 01:50:12;;;;;;;3.60;2.00;;;;;;;11.81;79.39;100259.77;104121;278;97279;-55
2023/07/19 01:52:46;;;;;;;5.10;1.90;;;;;;;11.80;79.48;100264.71;104090;278;118447;-55
2023/07/19 01:55:20;;;;;;;5.10;1.80;;;;;;;11.79;79.62;100263.33;104549;278;105450;-52
2023/07/19 01:57:54;;;;;;;3.80;2.00;;;;;;;11.77;79.66;100264.94;104080;278;112359;-53
2023/07/19 02:00:28;;;;;;;2.40;1.70;;;;;;;11.75;79.73;100259.27;103937;279;98161;-55
2023/07/19 02:03:02;;;;;;;4.50;2.00;;;;;;;11.74;79.98;100257.52;104084;278;97359;-55
2023/07/19 02:05:35;;;;;;;3.90;2.10;;;;;;;11.70;80.18;100253.99;104084;278;121153;-56
2023/07/19 02:08:09;;;;;;;5.60;2.40;;;;;;;11.71;79.97;100253.75;104104;278;105649;-56
2023/07/19 02:10:44;;;;;;;5.20;2.30;;;;;;;11.69;79.99;100257.43;104083;278;114138;-55
2023/07/19 02:13:18;;;;;;;3.00;2.20;;;;;;;11.69;80.06;100255.65;104042;278;94860;-55
2023/07/19 02:15:52;;;;;;;3.60;1.90;;;;;;;11.74;79.76;100249.55;104556;278;97557;-55
2023/07/19 02:18:26;;;;;;;3.30;1.90;;;;;;;11.75;79.73;100250.35;104095;278;120267;-55
2023/07/19 02:21:00;;;;;;;4.90;2.60;;;;;;;11.68;80.04;100251.30;103940;275;105545;-54
2023/07/19 02:23:35;;;;;;;5.40;2.20;;;;;;;11.64;80.15;100248.80;104505;278;114506;-54
2023/07/19 02:26:09;;;;;;;5.20;2.30;;;;;;;11.59;80.30;100245.66;104519;278;96381;-55
2023/07/19 02:28:43;;;;;;;3.40;2.00;;;;;;;11.54;80.42;100247.60;104074;278;97525;-55
2023/07/19 02:31:17;;;;;;;5.20;2.20;;;;;;;11.55;80.47;100250.92;104068;278;120501;-53
2023/07/19 02:33:51;;;;;;;3.90;2.20;;;;;;;11.54;80.41;100251.37;104079;278;104681;-53
2023/07/19 02:36:25;;;;;;;2.80;2.10;;;;;;;11.54;80.38;100253.38;104058;274;114382;-55
2023/07/19 02:38:59;;;;;;;5.00;2.00;;;;;;;11.53;80.59;100251.70;104074;278;96069;-55
2023/07/19 02:41:33;;;;;;;7.70;2.70;;;;;;;11.52;80.56;100259.85;104553;278;96398;-55
2023/07/19 02:44:07;;;;;;;3.20;2.30;;;;;;;11.51;80.62;100257.46;104526;278;120059;-55
2023/07/19 02:46:40;;;;;;;;;;;;;;;11.51;80.55;100249.85;104096;278;105543;-55
2023/07/19 02:49:14;;;;;;;4.50;2.20;;;;;;;11.48;80.85;100254.50;104080;278;114402;-55
2023/07/19 02:51:48;;;;;;;4.00;2.40;;;;;;;11.46;81.09;100253.52;104101;278;96854;-55
2023/07/19 02:54:22;;;;;;;3.10;2.40;;;;;;;11.46;81.07;100256.52;104114;278;97851;-55
2023/07/19 02:56:56;;;;;;;4.40;2.70;;;;;;;11.46;80.94;100253.58;104541;278;118399;-56
2023/07/19 02:59:29;;;;;;;3.90;2.10;;;;;;;11.47;81.00;100251.09;104103;278;104721;-56
2023/07/19 03:02:03;;;;;;;4.00;2.60;;;;;;;11.46;80.91;100245.66;104500;275;112884;-52
2023/07/19 03:04:38;;;;;;;6.10;2.70;;;;;;;11.49;81.20;100241.14;104092;278;95393;-54
2023/07/19 03:07:10;;;;;;;;;;;;;;;11.52;81.38;100233.84;104087;278;98070;-53
2023/07/19 03:09:44;;;;;;;7.10;2.60;;;;;;;11.55;81.36;100235.14;104093;278;121130;-53
2023/07/19 03:12:21;;;;;;;3.10;2.20;;;;;;;11.60;81.45;100236.60;104108;278;105671;-53
2023/07/19 03:14:56;;;;;;;5.10;2.60;;;;;;;11.66;81.49;100233.81;104091;278;114270;-53
2023/07/19 03:17:30;;;;;;;6.10;2.70;;;;;;;11.72;81.52;100231.70;104099;278;94732;-53
2023/07/19 03:20:04;;;;;;;4.20;2.40;;;;;;;11.80;81.28;100228.48;104109;278;98440;-55
2023/07/19 03:22:36;;;;;;;;;;;;;;;11.86;81.38;100227.05;104549;278;121420;-55
2023/07/19 03:25:12;;;;;;;5.20;2.70;;;;;;;11.93;81.53;100226.45;104569;278;105454;-56
2023/07/19 03:27:46;;;;;;;6.30;2.50;;;;;;;12.02;81.50;100227.95;104115;267;113911;-56
2023/07/19 03:30:21;;;;;;;4.50;3.30;;;;;;;12.12;81.69;100228.98;104134;278;95601;-55
2023/07/19 03:32:55;;;;;;;6.70;2.70;;;;;;;12.23;81.60;100223.80;104102;278;97096;-55
2023/07/19 03:35:27;;;;;;;;;;;;;;;12.34;81.75;100224.14;104098;278;120828;-55
2023/07/19 03:38:02;;;;;;;4.90;2.90;;;;;;;12.51;81.67;100225.75;104101;278;105915;-55
2023/07/19 03:40:36;;;;;;;5.60;2.60;;;;;;;12.67;81.40;100224.22;104070;278;113664;-53
2023/07/19 03:43:10;;;;;;;3.50;2.30;;;;;;;12.93;81.25;100225.36;104087;278;95963;-53
2023/07/19 03:45:44;;;;;;;6.30;2.80;;;;;;;13.66;80.66;100217.70;104560;278;97629;-55
2023/07/19 03:48:18;;;;;;;6.70;2.80;;;;;;;15.07;79.33;100218.11;104079;278;120149;-55
2023/07/19 03:51:01;;;;;;;4.60;2.50;;;;;;;16.37;77.92;100210.55;104113;278;106833;-56
2023/07/19 03:53:35;;;;;;;5.50;2.40;;;;;;;17.49;75.91;100208.23;104078;278;114655;-56
2023/07/19 03:56:09;;;;;;;5.70;3.10;;;;;;;18.35;74.25;100206.77;104106;278;94271;-55
2023/07/19 03:58:47;;;;;;;3.50;2.60;;;;;;;19.11;72.53;100205.55;104115;278;98205;-55
2023/07/19 04:01:21;;;;;;;3.60;2.40;;;;;;;19.74;70.77;100205.65;104092;278;120697;-55
2023/07/19 04:03:54;;;;;;;4.00;2.60;;;;;;;19.51;69.74;100208.27;104123;278;105160;-55
2023/07/19 04:06:28;;;;;;;5.60;2.90;;;;;;;19.07;69.26;100211.73;104095;278;113607;-54
2023/07/19 04:09:02;;;;;;;4.20;2.60;;;;;;;18.49;68.95;100214.00;104114;282;94833;-54
2023/07/19 04:11:36;;;;;;;5.00;2.90;;;;;;;18.06;69.30;100211.06;104597;278;97382;-53
2023/07/19 04:14:10;;;;;;;9.00;3.20;;;;;;;18.95;68.89;100211.97;104533;278;120994;-53
2023/07/19 04:16:46;;;;;;;4.60;2.80;;;;;;;20.21;67.79;100208.08;104116;278;106174;-55
2023/07/19 04:19:20;;;;;;;4.10;3.10;;;;;;;21.42;65.84;100201.77;104088;278;113602;-55
2023/07/19 04:21:54;;;;;;;3.70;2.70;;;;;;;21.99;64.57;100196.39;104559;278;93501;-55
2023/07/19 04:24:28;;;;;;;4.70;2.70;;;;;;;21.42;63.72;100196.23;104543;278;97654;-55
2023/07/19 04:27:03;;;;;;;4.70;2.60;;;;;;;20.58;63.69;100194.90;104544;278;119283;-54
2023/07/19 04:29:37;;;;;;;4.50;2.90;;;;;;;19.67;64.25;100193.15;104120;278;106123;-54
2023/07/19 04:32:10;;;;;;;;;;;;;;;19.18;64.68;100194.77;104124;278;114755;-56
2023/07/19 04:34:44;;;;;;;4.40;2.80;;;;;;;18.85;65.14;100196.53;104528;278;94348;-56
2023/07/19 04:37:18;;;;;;;4.60;3.00;;;;;;;18.70;65.66;100197.36;104092;278;97934;-56
2023/07/19 04:39:54;;;;;;;4.70;3.30;;;;;;;18.73;65.84;100196.48;104088;278;121944;-56
2023/07/19 04:42:29;;;;;;;5.80;3.20;;;;;;;18.61;66.35;100200.05;104108;278;104914;-56
2023/07/19 04:45:03;;;;;;;5.10;2.90;;;;;;;18.74;66.45;100197.05;104130;278;114615;-55
2023/07/19 04:47:37;;;;;;;;;;;;;;;18.94;66.18;100198.55;104572;278;94013;-55
2023/07/19 04:50:12;;;;;;;5.10;3.10;;;;;;;18.91;66.34;100202.22;104113;278;97201;-56
2023/07/19 04:52:46;;;;;;;5.10;3.20;;;;;;;19.02;66.52;100200.94;104581;278;120914;-56
2023/07/19 04:55:20;;;;;;;4.90;3.40;;;;;;;19.06;66.36;100197.65;104128;278;104655;-53
2023/07/19 04:57:52;;;;;;;;;;;;;;;19.24;66.47;100196.46;104092;278;112630;-53
2023/07/19 05:00:27;;;;;;;4.00;3.10;;;;;;;20.28;65.89;100194.45;104570;278;92993;-53
2023/07/19 05:03:01;;;;;;;6.80;3.80;;;;;;;22.36;64.25;100185.34;104158;278;97599;-53
2023/07/19 05:05:33;;;;;;;;;;;;;;;24.08;61.46;100183.45;104115;278;120490;-57
2023/07/19 05:08:08;;;;;;;6.20;3.90;;;;;;;24.35;59.61;100185.94;104105;278;106317;-57
2023/07/19 05:10:42;;;;;;;7.10;3.70;;;;;;;24.45;58.69;100181.40;104107;279;114415;-57
2023/07/19 05:13:16;;;;;;;5.10;3.90;;;;;;;24.34;58.08;100179.69;104072;278;95357;-57
2023/07/19 05:15:51;;;;;;;6.50;3.60;;;;;;;25.51;57.34;100170.19;104132;278;97938;-57
2023/07/19 05:18:25;;;;;;;4.30;3.40;;;;;;;26.81;56.11;100164.61;103599;278;548382;-57
2023/07/19 05:21:00;;;;;;;5.00;4.00;;;;;;;26.41;54.71;100167.20;104075;278;106283;-57
2023/07/19 05:23:34;;;;;;;4.20;3.10;;;;;;;27.34;53.48;100163.47;104106;278;113899;-57
2023/07/19 05:26:08;;;;;;;5.30;3.70;;;;;;;28.35;51.37;100163.22;104077;274;93284;-56
2023/07/19 05:28:43;;;;;;;3.90;2.90;;;;;;;28.41;50.16;100166.19;104516;278;98000;-56
2023/07/19 05:31:17;;;;;;;4.80;3.00;;;;;;;29.41;49.15;100162.06;104110;278;119908;-57
2023/07/19 05:33:51;;;;;;;6.50;2.70;;;;;;;30.04;48.22;100156.90;104089;278;103990;-57
2023/07/19 05:36:25;;;;;;;4.40;2.90;;;;;;;30.67;47.19;100155.86;104550;278;113169;-57
2023/07/19 05:39:00;;;;;;;4.70;2.60;;;;;;;31.33;45.37;100154.47;104090;278;93823;-57
2023/07/19 05:41:33;;;;;;;7.10;3.10;;;;;;;32.15;44.26;100150.05;104129;278;97969;-58
2023/07/19 05:44:08;;;;;;;3.60;2.40;;;;;;;32.51;42.84;100152.78;104133;278;119805;-56
2023/07/19 05:46:42;;;;;;;3.80;2.20;;;;;;;32.93;41.50;100153.98;104143;278;104497;-52
2023/07/19 05:49:17;;;;;;;3.80;1.80;;;;;;;33.27;39.32;100159.48;104132;278;113177;-54
2023/07/19 05:51:51;;;;;;;2.80;1.80;;;;;;;33.65;38.54;100154.60;104104;282;93504;-54
2023/07/19 05:54:25;;;;;;;5.60;2.00;;;;;;;34.20;37.36;100153.20;104541;278;97442;-54
2023/07/19 05:56:59;;;;;;;2.60;1.90;;;;;;;34.93;35.97;100150.81;103949;278;119907;-55
2023/07/19 05:59:37;;;;;;;3.30;1.80;;;;;;;35.44;34.71;100148.96;104522;278;105060;-55
2023/07/19 06:02:11;;;;;;;3.00;1.70;;;;;;;35.81;33.74;100148.39;104074;278;114975;-52
2023/07/19 06:04:47;;;;;;;3.00;2.30;;;;;;;36.02;32.90;100144.18;104086;278;93292;-53
2023/07/19 06:07:21;;;;;;;3.00;1.70;;;;;;;36.04;32.15;100143.44;104549;278;97321;-52
2023/07/19 06:09:55;;;;;;;2.50;1.60;;;;;;;36.52;31.61;100143.36;104532;278;120585;-52
2023/07/19 06:12:29;;;;;;;2.60;1.60;;;;;;;36.74;30.64;100140.39;104550;278;104883;-53
2023/07/19 06:15:04;;;;;;;2.70;1.70;;;;;;;36.77;30.69;100130.46;104102;278;114840;-54
2023/07/19 06:17:38;;;;;;;4.30;1.90;;;;;;;36.22;30.54;100135.04;104080;278;95781;-54
2023/07/19 06:20:14;;;;;;;2.30;1.60;;;;;;;36.59;29.65;100132.69;104112;278;96652;-57
2023/07/19 06:22:49;;;;;;;1.70;1.60;;;;;;;36.43;28.63;100126.84;104144;278;118864;-57
2023/07/19 06:25:23;;;;;;;2.10;1.70;;;;;;;36.57;28.22;100126.19;104591;278;105665;-53
2023/07/19 06:27:57;;;;;;;3.60;1.50;;;;;;;37.11;27.63;100127.23;104111;278;114086;-53
2023/07/19 06:30:31;;;;;;;2.50;1.50;;;;;;;37.66;26.78;100130.35;104092;278;94439;-55
2023/07/19 06:33:05;;;;;;;2.60;1.70;;;;;;;38.07;26.65;100122.48;104120;278;96589;-52
2023/07/19 06:35:40;;;;;;;3.90;1.50;;;;;;;38.30;25.86;100122.42;104127;278;119057;-56
2023/07/19 06:38:15;;;;;;;2.60;1.60;;;;;;;38.36;25.67;100118.58;103981;278;105539;-54
2023/07/19 06:40:49;;;;;;;4.10;1.50;;;;;;;38.73;25.54;100116.09;104115;278;113500;-56
2023/07/19 06:43:24;;;;;;;3.20;1.90;;;;;;;38.96;24.74;100114.13;104097;270;93718;-56
2023/07/19 06:46:00;;;;;;;2.70;1.60;;;;;;;39.15;24.34;100116.59;103960;278;97372;-63
2023/07/19 06:48:35;;;;;;;2.10;1.40;;;;;;;39.42;23.79;100112.99;104094;278;121415;-56
2023/07/19 06:51:10;;;;;;;2.00;1.40;;;;;;;39.45;23.37;100115.05;104109;278;105140;-57
2023/07/19 06:53:47;;;;;;;2.80;1.70;;;;;;;39.81;23.25;100114.32;104055;278;112249;-57
2023/07/19 06:56:24;;;;;;;3.40;1.60;;;;;;;40.04;22.57;100112.48;104101;278;93329;-54
2023/07/19 06:59:02;;;;;;;2.70;1.90;;;;;;;39.81;22.41;100115.05;103969;279;96382;-57
2023/07/19 07:01:38;;;;;;;4.00;1.90;;;;;;;39.95;22.26;100117.58;104133;278;119884;-57
2023/07/19 07:04:13;;;;;;;3.40;1.70;;;;;;;39.95;21.67;100115.73;104159;278;104515;-57
2023/07/19 07:06:52;;;;;;;5.00;2.20;;;;;;;40.05;21.99;100113.21;104111;278;114098;-53
2023/07/19 07:09:33;;;;;;;4.10;1.70;;;;;;;40.23;21.82;100113.02;104107;278;93312;-53
2023/07/19 07:12:21;;;;;;;2.50;1.50;;;;;;;40.60;21.51;100109.66;104576;278;97314;-53
2023/07/19 07:15:08;;;;;;;3.80;1.70;;;;;;;40.32;21.14;100114.67;104135;278;120487;-57
2023/07/19 07:17:50;;;;;;;2.90;1.80;;;;;;;40.63;21.26;100113.08;104118;278;104949;-56
2023/07/19 07:20:25;;;;;;;3.80;1.80;;;;;;;40.77;21.16;100110.38;104110;278;114300;-55
2023/07/19 07:23:02;;;;;;;3.90;1.90;;;;;;;40.98;21.04;100104.80;104113;278;94172;-54
2023/07/19 07:25:37;;;;;;;3.30;1.80;;;;;;;41.31;20.42;100104.23;104137;278;97965;-57
2023/07/19 07:28:11;;;;;;;2.50;1.80;;;;;;;41.29;20.13;100107.23;104089;278;120459;-57
2023/07/19 07:30:44;;;;;;;2.70;1.80;;;;;;;41.04;20.16;100104.95;104097;278;105385;-53
2023/07/19 07:33:20;;;;;;;3.80;1.60;;;;;;;40.88;20.53;100104.19;104068;278;115779;-53
2023/07/19 07:35:54;;;;;;;4.60;2.00;;;;;;;41.16;20.05;100103.46;104076;278;92571;-54
2023/07/19 07:38:29;;;;;;;2.50;1.70;;;;;;;41.22;19.87;100100.96;104111;278;96906;-53
2023/07/19 07:41:06;;;;;;;2.10;1.50;;;;;;;40.90;19.47;100096.18;104112;266;120743;-54
2023/07/19 07:43:41;;;;;;;3.10;2.10;;;;;;;40.85;19.57;100092.68;104080;278;105743;-55
2023/07/19 07:46:15;;;;;;;3.20;2.50;;;;;;;40.55;19.59;100088.60;104118;278;114456;-55
2023/07/19 07:48:49;;;;;;;3.50;1.90;;;;;;;40.36;19.43;100093.19;104568;278;94981;-55
2023/07/19 07:51:25;;;;;;;2.20;1.90;;;;;;;40.39;19.32;100094.81;104128;278;97583;-58
2023/07/19 07:54:01;;;;;;;2.60;2.10;;;;;;;40.09;19.15;100088.40;104080;278;120985;-58
2023/07/19 07:56:36;;;;;;;5.50;2.80;;;;;;;40.06;19.59;100090.26;104119;278;105167;-55
2023/07/19 07:59:10;;;;;;;5.00;2.50;;;;;;;40.08;19.37;100084.94;104071;278;115261;-55
2023/07/19 08:01:44;;;;;;;2.00;1.70;;;;;;;40.26;19.47;100084.48;104070;278;95426;-53
2023/07/19 08:04:19;;;;;;;3.50;2.10;;;;;;;40.18;19.07;100077.39;104559;278;98260;-53
2023/07/19 08:06:55;;;;;;;2.80;1.80;;;;;;;40.33;18.59;100074.16;104118;278;120002;-55
2023/07/19 08:09:29;;;;;;;2.50;2.00;;;;;;;40.20;18.61;100071.60;104589;278;105545;-55
2023/07/19 08:12:06;;;;;;;2.50;1.70;;;;;;;40.02;18.71;100068.96;103924;279;113546;-53
2023/07/19 08:14:41;;;;;;;3.30;1.70;;;;;;;39.69;18.91;100065.48;104082;278;93648;-54
2023/07/19 08:17:16;;;;;;;3.10;1.50;;;;;;;40.03;19.14;100058.36;104112;278;97617;-56
2023/07/19 08:19:50;;;;;;;1.60;1.20;;;;;;;40.14;18.97;100062.02;104128;278;120481;-56
2023/07/19 08:22:33;;;;;;;2.40;1.60;;;;;;;40.16;18.96;100055.86;104542;294;105291;-56
2023/07/19 08:25:10;;;;;;;2.50;1.40;;;;;;;40.30;18.98;100055.70;104097;278;114431;-53
2023/07/19 08:27:45;;;;;;;4.10;1.60;;;;;;;40.24;18.94;100050.58;104080;278;94505;-53
2023/07/19 08:30:23;;;;;;;1.60;1.40;;;;;;;39.71;18.57;100048.59;104581;278;97416;-55
2023/07/19 08:32:57;;;;;;;1.90;1.40;;;;;;;39.65;18.54;100039.92;104119;278;118848;-55
2023/07/19 08:35:31;;;;;;;1.60;1.40;;;;;;;38.80;18.64;100040.70;104149;278;104337;-56
2023/07/19 08:38:07;;;;;;;2.30;1.40;;;;;;;38.07;19.18;100039.36;104095;278;113319;-56
2023/07/19 08:40:49;;;;;;;2.00;1.20;;;;;;;37.76;19.48;100045.02;104125;278;93820;-56
2023/07/19 08:43:28;;;;;;;4.20;1.80;;;;;;;38.22;19.69;100038.53;104105;278;97408;-56
2023/07/19 08:46:03;;;;;;;2.00;1.20;;;;;;;39.04;19.81;100032.08;104543;278;119765;-53
2023/07/19 08:48:39;;;;;;;1.70;1.30;;;;;;;39.68;19.20;100028.95;104113;278;106151;-53
2023/07/19 08:51:15;;;;;;;2.40;1.30;;;;;;;39.93;18.90;100025.80;103952;279;114137;-58
2023/07/19 08:53:50;;;;;;;1.80;1.50;;;;;;;39.89;18.70;100026.34;104112;278;93886;-68
2023/07/19 08:56:24;;;;;;;2.20;1.40;;;;;;;39.30;18.69;100025.65;104130;278;97714;-68
2023/07/19 08:58:57;;;;;;;2.20;1.20;;;;;;;38.74;19.04;100021.77;104539;278;121150;-67
2023/07/19 09:01:31;;;;;;;1.70;1.30;;;;;;;37.72;19.51;100023.04;104114;278;104670;-65
2023/07/19 09:04:11;;;;;;;2.10;1.30;;;;;;;37.34;20.30;100014.86;104096;278;114587;-54
2023/07/19 09:06:45;;;;;;;2.00;1.30;;;;;;;37.17;20.29;100011.34;104120;278;94401;-56
2023/07/19 09:09:20;;;;;;;4.20;1.70;;;;;;;37.21;20.20;100009.00;104092;278;97798;-56
2023/07/19 09:11:54;;;;;;;4.60;1.70;;;;;;;37.07;20.53;100004.09;104096;278;121316;-53
2023/07/19 09:14:42;;;;;;;4.50;1.50;;;;;;;36.85;20.68;100008.51;104146;278;105471;-53
2023/07/19 09:17:16;;;;;;;3.40;1.60;;;;;;;36.25;21.13;100007.82;104085;278;113920;-53
2023/07/19 09:19:50;;;;;;;2.00;1.30;;;;;;;35.82;21.27;100009.59;103966;278;95572;-53
2023/07/19 09:22:28;;;;;;;2.20;1.50;;;;;;;35.22;21.52;100011.77;104128;278;97189;-53
2023/07/19 09:25:03;;;;;;;6.10;2.00;;;;;;;35.09;22.13;100005.95;104129;278;120762;-56
2023/07/19 09:27:38;;;;;;;1.60;1.20;;;;;;;34.94;21.90;100006.60;104094;278;104851;-56
2023/07/19 09:30:16;;;;;;;2.10;1.30;;;;;;;34.53;21.78;100004.50;104096;279;113403;-54
2023/07/19 09:33:00;;;;;;;2.40;1.40;;;;;;;34.67;22.66;100003.39;104107;278;93408;-54
2023/07/19 09:35:34;;;;;;;3.70;1.40;;;;;;;34.30;22.34;100005.77;104119;278;97789;-57
2023/07/19 09:38:08;;;;;;;2.00;1.10;;;;;;;33.94;22.63;99998.33;104513;278;118478;-57
2023/07/19 09:40:42;;;;;;;2.40;1.20;;;;;;;33.56;23.28;99999.07;104139;278;105771;-54
2023/07/19 09:43:17;;;;;;;4.10;1.60;;;;;;;33.45;23.32;99994.92;104099;278;113962;-54
2023/07/19 09:45:53;;;;;;;2.10;1.20;;;;;;;33.33;23.34;99996.05;104564;278;93865;-54
2023/07/19 09:48:28;;;;;;;2.80;1.30;;;;;;;33.14;23.79;99996.16;104555;278;96669;-54
2023/07/19 09:51:04;;;;;;;2.80;1.20;;;;;;;33.17;23.68;99997.54;104106;278;120945;-55
2023/07/19 09:53:40;;;;;;;2.00;1.10;;;;;;;33.07;23.80;99992.15;104055;278;105847;-55
2023/07/19 09:56:14;;;;;;;2.50;1.40;;;;;;;32.90;23.46;99988.42;104545;278;114717;-56
2023/07/19 09:58:48;;;;;;;2.90;1.40;;;;;;;32.70;23.83;99989.80;104070;278;94406;-56
2023/07/19 10:01:23;;;;;;;2.40;1.20;;;;;;;32.26;23.92;99986.90;104584;278;98197;-56
2023/07/19 10:04:00;;;;;;;2.70;1.50;;;;;;;32.13;23.87;99980.35;104107;278;120532;-56
2023/07/19 10:06:37;;;;;;;2.90;1.40;;;;;;;32.00;24.47;99971.38;104105;278;104354;-55
2023/07/19 10:09:36;;;;;;;4.20;1.40;;;;;;;32.04;24.51;99970.29;104103;278;114094;-55
2023/07/19 10:12:28;;;;;;;2.70;1.30;;;;;;;32.18;24.81;99966.17;104572;278;94408;-54
2023/07/19 10:15:05;;;;;;;2.70;1.30;;;;;;;32.29;25.27;99960.33;104128;278;98571;-53
2023/07/19 10:17:54;;;;;;;2.50;1.70;;;;;;;32.30;25.49;99961.09;104108;278;119399;-53
2023/07/19 10:20:32;;;;;;;2.20;1.20;;;;;;;32.51;25.04;99958.73;104119;278;104847;-52
2023/07/19 10:23:08;;;;;;;2.40;1.60;;;;;;;32.34;24.16;99953.89;104547;278;114309;-52
2023/07/19 10:25:48;;;;;;;3.20;1.70;;;;;;;32.14;23.75;99949.89;104542;278;93815;-54
2023/07/19 10:28:31;;;;;;;3.00;1.30;;;;;;;32.03;23.68;99942.19;104068;278;97617;-54
2023/07/19 10:31:07;;;;;;;2.30;1.40;;;;;;;32.00;23.83;99936.16;104098;278;119306;-52
2023/07/19 10:33:41;;;;;;;3.00;1.40;;;;;;;31.96;24.19;99936.98;104554;278;105051;-52
2023/07/19 10:36:15;;;;;;;2.80;1.50;;;;;;;31.94;23.42;99932.35;104088;278;114364;-56
2023/07/19 10:38:49;;;;;;;3.50;1.50;;;;;;;31.33;23.55;99924.75;104072;278;93945;-56
2023/07/19 10:41:23;;;;;;;3.60;1.20;;;;;;;31.66;24.33;99922.82;104123;278;97890;-56
2023/07/19 10:44:02;;;;;;;1.80;1.30;;;;;;;31.99;24.43;99917.40;104066;278;120884;-56
2023/07/19 10:46:36;;;;;;;2.00;1.30;;;;;;;32.05;24.49;99914.25;104090;279;104546;-56
2023/07/19 10:49:11;;;;;;;2.50;1.50;;;;;;;31.57;24.30;99909.70;104093;278;114410;-56
2023/07/19 10:51:55;;;;;;;2.30;1.30;;;;;;;31.53;24.10;99906.84;104108;278;94384;-55
2023/07/19 10:54:30;;;;;;;1.80;1.30;;;;;;;31.36;24.64;99904.69;104121;278;98365;-55
2023/07/19 10:57:12;;;;;;;3.30;1.40;;;;;;;31.35;25.08;99902.10;104111;278;120651;-56
2023/07/19 10:59:51;;;;;;;2.50;1.30;;;;;;;31.36;25.53;99903.35;104552;278;106530;-56
2023/07/19 11:02:25;;;;;;;2.30;1.20;;;;;;;31.41;25.74;99903.31;104092;278;114304;-56
2023/07/19 11:04:59;;;;;;;2.40;1.20;;;;;;;31.47;25.94;99899.27;104105;278;93248;-54
2023/07/19 11:07:40;;;;;;;2.60;1.40;;;;;;;31.55;25.72;99899.88;104133;278;97882;-55
2023/07/19 11:10:15;;;;;;;2.70;1.50;;;;;;;31.59;25.68;99900.80;104078;278;120916;-53
2023/07/19 11:12:49;;;;;;;3.10;1.40;;;;;;;31.57;25.90;99903.22;104565;278;106304;-53
2023/07/19 11:15:26;;;;;;;2.20;1.40;;;;;;;31.45;26.17;99900.66;104117;278;113365;-54
2023/07/19 11:18:10;;;;;;;4.50;1.30;;;;;;;31.29;25.90;99900.17;104070;278;94480;-55
2023/07/19 11:20:42;;;;;;;;;;;;;;;31.06;25.75;99899.24;104063;278;96670;-53
2023/07/19 11:23:17;;;;;;;3.40;1.50;;;;;;;30.92;25.61;99894.14;104098;278;119545;-53
2023/07/19 11:25:51;;;;;;;2.10;1.20;;;;;;;30.87;26.04;99894.65;104134;278;105581;-53
2023/07/19 11:28:44;;;;;;;3.30;1.20;;;;;;;30.89;26.60;99889.63;104108;278;113992;-53
2023/07/19 11:31:33;;;;;;;2.30;1.60;;;;;;;31.11;26.95;99889.71;104070;278;94300;-52
2023/07/19 11:34:09;;;;;;;2.20;1.50;;;;;;;31.31;26.76;99886.06;104127;279;98328;-53
2023/07/19 11:36:47;;;;;;;2.80;1.60;;;;;;;31.30;26.59;99883.88;104117;278;119833;-53
2023/07/19 11:39:23;;;;;;;2.00;1.10;;;;;;;31.35;25.96;99878.81;104089;282;106119;-53
2023/07/19 11:41:57;;;;;;;3.20;1.40;;;;;;;31.16;25.47;99876.91;104565;278;114160;-53
2023/07/19 11:44:32;;;;;;;1.90;1.10;;;;;;;31.23;26.05;99876.65;104141;278;93489;-53
2023/07/19 11:47:06;;;;;;;4.10;1.40;;;;;;;31.44;26.14;99876.00;104152;278;95809;-56
2023/07/19 11:49:43;;;;;;;3.10;1.50;;;;;;;31.55;26.08;99874.52;104572;278;120379;-54
2023/07/19 11:52:17;;;;;;;2.10;1.50;;;;;;;31.44;25.72;99875.11;104099;278;104935;-53
2023/07/19 11:54:52;;;;;;;1.80;1.20;;;;;;;31.34;25.79;99874.13;104528;278;113143;-55
2023/07/19 11:57:26;;;;;;;3.60;1.40;;;;;;;31.20;25.90;99879.19;104088;278;95076;-55
2023/07/19 12:00:00;;;;;;;2.90;1.30;;;;;;;31.10;26.16;99873.02;104560;278;96005;-54
2023/07/19 12:02:34;;;;;;;2.40;1.20;;;;;;;30.96;26.04;99872.23;104104;279;120966;-54